Burkmere, South Dakota
Current Conditions -  °F | °C
As of 12:53 PM on Saturday 25 Oct 2014 (Local Time) from KABR Reporting Station
Clear Clear  
Wind Chill: 63°   Ceiling: Unl
Heat Index: 63°   Visibility: 10mi
Dew Point: 33°   Wind: 6mph
Humidity: 33%   Direction: 10°N
Pressure: 30.16"   Gusts: NA
Location:  45.0672°N, 99.0996°W
Report Text: KABR 251753Z AUTO 01005KT 10SM CLR 17/01 A3016 RMK AO2 SLP212 T01720006 10172 20033 58002
Loading
Personal Weather Stations






























Interactive Weather Map
Tropical Storm Tracking
New forecast layout! Learn more

10-Day Weather Forecast

Advertisements
Track Severe Weather on mobile